Time;durP1;ratioP1;P1;durP2;ratioP2;P2;SDS_P1;SDS_P2;PMS_P1;PMS_P2;Temp;Humidity;BMP_temperature;BMP_pressure;BME280_temperature;BME280_humidity;BME280_pressure;Samples;Min_cycle;Max_cycle;Signal;HPM_P1;HPM_P2
2022/05/11 00:00:01;;;;;;;331.02;139.65;;;;;;;15.51;54.33;99973.66;334301;29;1238;-74
2022/05/11 00:00:13;;;;;;;328.80;137.33;;;;;;;15.48;54.22;99971.19;335129;29;1268;-74
2022/05/11 00:00:24;;;;;;;330.77;137.50;;;;;;;15.49;54.36;99970.25;333123;29;2115;-74
2022/05/11 00:00:35;;;;;;;332.67;137.27;;;;;;;15.51;54.37;99971.03;334192;29;992;-74
2022/05/11 00:00:45;;;;;;;333.45;137.57;;;;;;;15.50;54.49;99969.31;335478;29;1234;-74
2022/05/11 00:00:56;;;;;;;333.05;137.52;;;;;;;15.50;54.71;99974.59;336762;29;1301;-74
2022/05/11 00:01:12;;;;;;;332.97;140.13;;;;;;;15.50;54.63;99969.31;336873;29;1545;-74
2022/05/11 00:01:23;;;;;;;332.60;139.85;;;;;;;15.49;54.68;99966.78;336937;29;1844;-74
2022/05/11 00:01:36;;;;;;;330.63;138.45;;;;;;;15.45;55.23;99968.72;337110;29;1039;-74
2022/05/11 00:01:47;;;;;;;328.70;135.95;;;;;;;15.47;55.38;99960.72;335192;29;1618;-74
2022/05/11 00:01:57;;;;;;;329.20;136.90;;;;;;;15.50;55.49;99973.75;332739;29;1105;-75
2022/05/11 00:02:08;;;;;;;330.48;137.73;;;;;;;15.49;55.42;99967.63;336816;29;830;-75
2022/05/11 00:02:18;;;;;;;331.00;138.33;;;;;;;15.49;55.71;99972.91;335545;29;763;-74
2022/05/11 00:02:28;;;;;;;329.85;136.85;;;;;;;15.47;56.00;99971.28;335369;29;1522;-73
2022/05/11 00:02:39;;;;;;;330.17;137.00;;;;;;;15.44;56.19;99967.03;336831;29;1291;-74
2022/05/11 00:02:49;;;;;;;328.65;136.13;;;;;;;15.43;56.20;99967.97;338099;29;1365;-74
2022/05/11 00:03:00;;;;;;;330.90;137.10;;;;;;;15.43;56.38;99970.59;336687;29;1356;-73
2022/05/11 00:03:10;;;;;;;332.15;136.77;;;;;;;15.41;56.42;99964.56;337911;29;1236;-73
2022/05/11 00:03:21;;;;;;;331.47;136.07;;;;;;;15.42;56.95;99966.25;336228;29;1198;-74
2022/05/11 00:03:31;;;;;;;332.13;135.20;;;;;;;15.38;57.56;99975.25;336993;29;1125;-73
2022/05/11 00:03:42;;;;;;;332.60;136.82;;;;;;;15.38;57.10;99975.25;334131;29;859;-74
2022/05/11 00:03:53;;;;;;;334.10;138.83;;;;;;;15.34;57.56;99975.50;334350;29;1509;-74
2022/05/11 00:04:05;;;;;;;332.65;138.38;;;;;;;15.35;57.39;99969.31;336986;29;799;-75
2022/05/11 00:04:16;;;;;;;331.20;136.90;;;;;;;15.36;57.52;99971.88;339334;29;1328;-74
2022/05/11 00:04:27;;;;;;;332.57;137.53;;;;;;;15.37;57.33;99970.94;336712;29;1157;-74
2022/05/11 00:04:39;;;;;;;332.77;138.77;;;;;;;15.35;57.26;99962.25;336651;29;1264;-74
2022/05/11 00:04:49;;;;;;;334.00;140.48;;;;;;;15.36;57.22;99965.72;335344;29;1557;-74
2022/05/11 00:05:00;;;;;;;334.95;141.25;;;;;;;15.37;57.42;99965.66;336791;29;1807;-73
2022/05/11 00:05:11;;;;;;;329.47;138.03;;;;;;;15.37;57.58;99968.28;335632;29;2056;-74
2022/05/11 00:05:22;;;;;;;330.38;135.90;;;;;;;15.36;57.58;99971.88;336711;29;1687;-74
2022/05/11 00:05:33;;;;;;;332.13;134.82;;;;;;;15.35;57.60;99970.16;335469;29;1392;-74
2022/05/11 00:05:43;;;;;;;333.52;135.32;;;;;;;15.34;57.57;99968.47;332669;29;1974;-73
2022/05/11 00:05:54;;;;;;;329.63;135.02;;;;;;;15.34;57.86;99973.72;335608;29;1381;-75
2022/05/11 00:06:05;;;;;;;329.53;135.67;;;;;;;15.30;57.57;99966.91;336793;29;1297;-75
2022/05/11 00:06:15;;;;;;;329.27;134.63;;;;;;;15.31;57.54;99965.97;336646;29;923;-75
2022/05/11 00:06:26;;;;;;;329.35;133.82;;;;;;;15.31;57.53;99969.47;336943;29;950;-74
2022/05/11 00:06:37;;;;;;;328.60;132.25;;;;;;;15.34;57.30;99968.47;339563;29;1587;-74
2022/05/11 00:06:49;;;;;;;329.65;131.85;;;;;;;15.37;57.57;99972.72;338125;29;865;-74
2022/05/11 00:06:59;;;;;;;330.85;131.55;;;;;;;15.34;57.44;99965.81;336822;29;954;-75
2022/05/11 00:07:10;;;;;;;331.50;132.47;;;;;;;15.31;57.44;99961.56;333050;29;1100;-75
2022/05/11 00:07:20;;;;;;;330.77;132.68;;;;;;;15.36;57.45;99965.72;337891;29;1362;-75
2022/05/11 00:07:31;;;;;;;330.87;135.03;;;;;;;15.31;57.52;99958.06;338430;29;3946;-73
2022/05/11 00:07:41;;;;;;;332.90;136.45;;;;;;;15.29;57.50;99962.56;333479;29;5235;-75
2022/05/11 00:07:52;;;;;;;333.20;137.77;;;;;;;15.26;57.64;99962.75;336363;29;1808;-74
2022/05/11 00:08:04;;;;;;;337.77;139.88;;;;;;;15.27;57.48;99967.09;336801;29;1784;-73
2022/05/11 00:08:16;;;;;;;335.30;139.38;;;;;;;15.24;57.46;99962.81;336535;29;6020;-73
2022/05/11 00:08:27;;;;;;;330.42;137.88;;;;;;;15.25;57.52;99958.41;335623;29;1447;-73
2022/05/11 00:08:38;;;;;;;329.58;136.90;;;;;;;15.23;57.54;99955.00;335743;29;807;-73
2022/05/11 00:08:48;;;;;;;330.57;137.07;;;;;;;15.24;57.20;99960.19;335352;29;1313;-73
2022/05/11 00:08:59;;;;;;;332.27;136.98;;;;;;;15.24;57.44;99964.63;335551;29;1565;-73
2022/05/11 00:09:10;;;;;;;334.57;137.87;;;;;;;15.26;56.95;99963.59;338291;29;839;-73
2022/05/11 00:09:21;;;;;;;331.73;135.73;;;;;;;15.24;57.20;99961.97;337263;29;1478;-75
2022/05/11 00:09:31;;;;;;;330.07;134.27;;;;;;;15.23;57.46;99960.28;337039;29;1520;-74
2022/05/11 00:09:42;;;;;;;329.60;133.02;;;;;;;15.22;57.20;99955.94;338017;29;1132;-74
2022/05/11 00:09:52;;;;;;;332.67;135.27;;;;;;;15.24;57.12;99959.34;335823;29;1534;-74
2022/05/11 00:10:11;;;;;;;331.45;134.65;;;;;;;15.23;57.09;99955.00;334355;29;1917;-73
2022/05/11 00:10:21;;;;;;;327.73;132.73;;;;;;;15.22;56.70;99958.56;334058;29;1342;-76
2022/05/11 00:10:32;;;;;;;327.80;131.77;;;;;;;15.20;55.91;99955.16;334553;29;1447;-74
2022/05/11 00:10:42;;;;;;;329.30;133.00;;;;;;;15.22;55.87;99956.78;334095;29;1231;-75
2022/05/11 00:10:53;;;;;;;331.47;133.27;;;;;;;15.23;55.96;99961.13;335566;29;1606;-75
2022/05/11 00:11:04;;;;;;;332.15;135.02;;;;;;;15.23;55.42;99957.63;337053;29;893;-75
2022/05/11 00:11:16;;;;;;;332.30;133.90;;;;;;;15.24;55.33;99959.34;336665;29;1320;-74
2022/05/11 00:11:27;;;;;;;330.88;133.55;;;;;;;15.27;55.43;99962.66;335437;29;1442;-74
2022/05/11 00:11:37;;;;;;;331.38;132.27;;;;;;;15.24;55.28;99956.69;338058;29;1922;-74
2022/05/11 00:11:48;;;;;;;331.77;132.85;;;;;;;15.23;55.41;99955.00;335480;29;1279;-74
2022/05/11 00:11:58;;;;;;;331.40;133.90;;;;;;;15.20;55.18;99960.44;334258;29;1217;-74
2022/05/11 00:12:10;;;;;;;331.37;134.93;;;;;;;15.20;55.24;99955.16;335293;29;1694;-74
2022/05/11 00:12:22;;;;;;;330.33;135.57;;;;;;;15.19;55.13;99956.09;335251;29;1273;-74
2022/05/11 00:12:32;;;;;;;329.05;134.45;;;;;;;15.21;54.95;99962.13;336521;29;1523;-74
2022/05/11 00:12:45;;;;;;;332.67;134.98;;;;;;;15.20;55.02;99949.88;338204;29;1245;-74
2022/05/11 00:12:57;;;;;;;334.15;135.35;;;;;;;15.18;55.16;99951.75;335412;29;1270;-74
2022/05/11 00:13:07;;;;;;;329.02;132.82;;;;;;;15.18;54.94;99957.03;336710;29;1544;-73
2022/05/11 00:13:19;;;;;;;327.30;133.25;;;;;;;15.17;55.05;99948.28;334284;29;1172;-74
2022/05/11 00:13:30;;;;;;;327.58;133.38;;;;;;;15.21;54.86;99956.88;331734;29;1287;-74
2022/05/11 00:13:40;;;;;;;330.35;135.57;;;;;;;15.19;55.05;99954.31;334451;29;1295;-75
2022/05/11 00:13:52;;;;;;;330.20;136.23;;;;;;;15.20;54.96;99949.88;334098;29;1553;-74
2022/05/11 00:14:03;;;;;;;329.83;135.30;;;;;;;15.21;54.97;99962.13;335368;29;1294;-74
2022/05/11 00:14:13;;;;;;;329.02;136.18;;;;;;;15.19;55.12;99954.31;334789;29;1804;-74
2022/05/11 00:14:24;;;;;;;327.40;135.40;;;;;;;15.20;54.97;99955.16;335656;29;1215;-74
2022/05/11 00:14:34;;;;;;;327.30;135.52;;;;;;;15.21;55.07;99956.88;337207;29;1334;-74
2022/05/11 00:14:46;;;;;;;326.70;134.83;;;;;;;15.22;54.76;99956.78;333193;29;1697;-73
2022/05/11 00:14:56;;;;;;;326.65;134.57;;;;;;;15.22;54.94;99950.66;336214;29;1900;-73
2022/05/11 00:15:07;;;;;;;328.63;134.20;;;;;;;15.24;54.99;99956.69;335444;29;992;-73
2022/05/11 00:15:22;;;;;;;332.27;135.35;;;;;;;15.21;54.97;99960.34;338073;29;893;-73
2022/05/11 00:15:32;;;;;;;331.13;135.85;;;;;;;15.20;54.74;99960.44;334142;29;1558;-73
2022/05/11 00:15:43;;;;;;;328.70;136.03;;;;;;;15.20;54.72;99952.53;335570;29;1231;-74
2022/05/11 00:15:53;;;;;;;328.52;135.57;;;;;;;15.20;54.76;99955.16;335082;29;1018;-73
2022/05/11 00:16:04;;;;;;;326.23;133.17;;;;;;;15.16;55.01;99959.75;336688;29;1314;-73
2022/05/11 00:16:14;;;;;;;325.88;131.75;;;;;;;15.15;54.78;99951.97;337897;29;1384;-73
2022/05/11 00:16:26;;;;;;;328.03;134.17;;;;;;;15.17;55.21;99950.06;335628;29;1276;-74
2022/05/11 00:16:36;;;;;;;329.55;134.75;;;;;;;15.19;54.78;99953.47;338013;29;1464;-74
2022/05/11 00:16:46;;;;;;;328.87;136.67;;;;;;;15.18;54.81;99954.41;336754;29;5217;-74
2022/05/11 00:16:59;;;;;;;328.20;136.15;;;;;;;15.14;54.70;99959.00;339364;28;5491;-74
2022/05/11 00:17:09;;;;;;;333.30;140.13;;;;;;;15.12;55.06;99952.13;338045;29;834;-75
2022/05/11 00:17:20;;;;;;;332.90;138.57;;;;;;;15.11;55.03;99953.06;334957;29;5887;-75
2022/05/11 00:17:30;;;;;;;332.63;137.03;;;;;;;15.07;55.13;99948.88;335935;29;894;-74
2022/05/11 00:17:41;;;;;;;330.38;135.30;;;;;;;15.09;54.99;99957.56;334244;29;1239;-74
2022/05/11 00:17:52;;;;;;;330.20;134.87;;;;;;;15.11;55.18;99956.53;336423;29;2256;-74
2022/05/11 00:18:03;;;;;;;330.73;135.00;;;;;;;15.13;55.09;99951.19;338298;29;1881;-74
2022/05/11 00:18:13;;;;;;;329.95;136.15;;;;;;;15.13;54.87;99953.81;336327;29;1344;-73
2022/05/11 00:18:24;;;;;;;330.20;136.73;;;;;;;15.12;54.89;99952.97;336812;29;1285;-74
2022/05/11 00:18:35;;;;;;;327.15;135.30;;;;;;;15.14;54.77;99956.38;337931;29;1292;-75
2022/05/11 00:18:46;;;;;;;328.00;135.57;;;;;;;15.13;54.66;99959.09;337905;29;1233;-75
2022/05/11 00:18:58;;;;;;;331.98;134.95;;;;;;;15.11;54.84;99951.28;335335;29;1293;-75
2022/05/11 00:19:08;;;;;;;331.00;131.73;;;;;;;15.08;54.95;99950.59;335602;29;1211;-74
2022/05/11 00:19:21;;;;;;;328.40;132.45;;;;;;;15.06;54.86;99958.56;334222;29;986;-74
2022/05/11 00:19:32;;;;;;;326.73;133.57;;;;;;;15.07;54.87;99954.16;339094;29;1273;-75
2022/05/11 00:19:42;;;;;;;326.52;133.18;;;;;;;15.05;54.81;99946.31;335701;29;1855;-74
2022/05/11 00:19:53;;;;;;;327.30;133.50;;;;;;;15.05;54.84;99961.28;335191;29;1395;-74
2022/05/11 00:20:06;;;;;;;327.42;134.13;;;;;;;15.04;54.99;99951.69;335399;29;1034;-73
2022/05/11 00:20:17;;;;;;;327.65;134.35;;;;;;;15.03;54.91;99955.25;338586;29;1616;-74
2022/05/11 00:20:29;;;;;;;329.23;133.45;;;;;;;15.04;55.01;99947.25;336919;29;1048;-73
2022/05/11 00:20:40;;;;;;;329.48;132.65;;;;;;;15.07;54.58;99951.50;336659;29;1306;-74
2022/05/11 00:20:51;;;;;;;329.05;135.30;;;;;;;15.06;54.63;99957.72;333838;29;1273;-75
2022/05/11 00:21:02;;;;;;;329.37;136.53;;;;;;;15.06;54.72;99955.09;338242;29;1221;-74
2022/05/11 00:21:12;;;;;;;332.33;137.70;;;;;;;15.04;54.78;99955.16;339603;29;827;-74
2022/05/11 00:21:23;;;;;;;329.70;134.53;;;;;;;15.03;54.88;99958.72;335784;29;1182;-75
2022/05/11 00:21:33;;;;;;;331.70;133.93;;;;;;;15.03;54.98;99957.88;336671;29;1268;-75
2022/05/11 00:21:44;;;;;;;331.38;132.88;;;;;;;15.00;54.83;99956.25;338034;29;1231;-76
2022/05/11 00:21:54;;;;;;;329.40;133.23;;;;;;;14.97;54.76;99959.91;336951;29;2184;-74
2022/05/11 00:22:05;;;;;;;327.00;131.87;;;;;;;14.98;54.94;99951.06;336987;29;1245;-74
2022/05/11 00:22:15;;;;;;;324.83;131.07;;;;;;;14.99;55.09;99951.91;334172;29;883;-74
2022/05/11 00:22:27;;;;;;;327.17;132.35;;;;;;;14.96;54.71;99942.41;339381;29;1389;-74
2022/05/11 00:22:39;;;;;;;327.48;132.60;;;;;;;14.99;54.79;99951.91;338163;29;1276;-74
2022/05/11 00:22:56;;;;;;;327.13;132.82;;;;;;;15.00;54.85;99952.78;334883;29;1520;-73
2022/05/11 00:23:06;;;;;;;325.77;131.27;;;;;;;14.98;54.92;99948.44;338445;29;1763;-72
2022/05/11 00:23:17;;;;;;;327.23;130.03;;;;;;;15.02;54.57;99950.91;340407;28;2066;-73
2022/05/11 00:23:27;;;;;;;328.15;131.70;;;;;;;15.02;54.65;99953.53;334093;29;1344;-74
2022/05/11 00:23:38;;;;;;;328.53;133.50;;;;;;;15.01;54.50;99955.31;335669;29;1247;-74
2022/05/11 00:23:48;;;;;;;328.42;134.85;;;;;;;15.01;54.51;99947.41;336676;29;1234;-73
2022/05/11 00:23:59;;;;;;;328.40;133.63;;;;;;;15.03;54.37;99952.63;332794;29;788;-74
2022/05/11 00:24:10;;;;;;;329.35;133.65;;;;;;;15.01;54.43;99949.22;336806;29;2065;-74
2022/05/11 00:24:20;;;;;;;328.92;134.48;;;;;;;15.02;54.59;99948.28;339147;28;1419;-75
2022/05/11 00:24:31;;;;;;;328.15;134.20;;;;;;;15.01;54.61;99949.22;332758;29;2118;-74
2022/05/11 00:24:41;;;;;;;328.03;133.77;;;;;;;15.04;54.46;99954.31;335221;29;850;-75
2022/05/11 00:24:52;;;;;;;327.00;133.40;;;;;;;15.04;54.56;99951.69;335271;29;1169;-75
2022/05/11 00:25:04;;;;;;;330.98;135.93;;;;;;;15.01;54.71;99954.47;333925;29;1321;-75
2022/05/11 00:25:15;;;;;;;330.33;135.80;;;;;;;14.98;54.47;99948.44;334058;29;1569;-75
2022/05/11 00:25:27;;;;;;;328.35;134.30;;;;;;;14.95;54.89;99953.88;334165;29;1101;-75
2022/05/11 00:25:38;;;;;;;327.42;132.75;;;;;;;14.97;54.67;99949.38;334037;29;955;-75
2022/05/11 00:25:48;;;;;;;326.70;131.77;;;;;;;14.97;54.47;99949.38;336509;29;2006;-74
2022/05/11 00:25:59;;;;;;;327.63;132.75;;;;;;;14.98;54.54;99935.25;334268;29;5280;-74
2022/05/11 00:26:09;;;;;;;326.50;133.30;;;;;;;15.02;54.43;99956.19;332862;29;5701;-75
2022/05/11 00:26:20;;;;;;;332.27;138.13;;;;;;;15.03;53.98;99952.63;335576;29;932;-74
2022/05/11 00:26:31;;;;;;;334.13;138.45;;;;;;;15.05;53.93;99953.38;338856;29;5290;-74
2022/05/11 00:26:41;;;;;;;333.97;138.73;;;;;;;15.07;54.32;99948.88;339194;28;855;-74
2022/05/11 00:26:53;;;;;;;329.30;135.93;;;;;;;15.06;54.32;99955.09;337309;29;1006;-75
2022/05/11 00:27:04;;;;;;;328.45;134.30;;;;;;;15.07;54.34;99948.88;334055;29;1399;-75
2022/05/11 00:27:14;;;;;;;328.23;133.20;;;;;;;15.04;54.26;99954.31;335777;29;803;-75
2022/05/11 00:27:25;;;;;;;328.93;132.73;;;;;;;15.03;54.63;99948.19;335623;29;847;-74
2022/05/11 00:27:35;;;;;;;328.95;131.25;;;;;;;15.02;54.74;99951.75;336723;29;1198;-74
2022/05/11 00:27:45;;;;;;;328.33;131.37;;;;;;;15.05;54.67;99951.59;336635;29;1175;-74
2022/05/11 00:27:57;;;;;;;328.27;132.63;;;;;;;15.03;54.75;99960.53;336599;29;1213;-74
2022/05/11 00:28:08;;;;;;;331.33;136.18;;;;;;;15.03;54.33;99952.63;338106;29;878;-74
2022/05/11 00:28:18;;;;;;;333.48;136.50;;;;;;;15.03;54.58;99955.25;336727;29;1237;-74
2022/05/11 00:28:28;;;;;;;333.50;134.33;;;;;;;15.03;54.64;99957.88;334229;29;1192;-74
2022/05/11 00:28:39;;;;;;;330.70;132.35;;;;;;;15.03;54.72;99952.63;333065;29;883;-76
2022/05/11 00:28:49;;;;;;;331.57;132.07;;;;;;;15.02;54.70;99950.91;335557;29;768;-74
2022/05/11 00:29:00;;;;;;;332.23;134.23;;;;;;;15.00;54.72;99948.34;336539;29;1206;-74
2022/05/11 00:29:10;;;;;;;333.50;134.82;;;;;;;14.99;54.61;99949.28;335381;29;1250;-74
2022/05/11 00:29:20;;;;;;;332.93;136.00;;;;;;;15.00;55.04;99955.41;336439;29;2350;-75
2022/05/11 00:29:31;;;;;;;332.90;134.80;;;;;;;14.97;54.75;99957.28;336996;29;1348;-75
2022/05/11 00:29:41;;;;;;;332.30;134.93;;;;;;;14.97;54.93;99954.63;335144;29;1261;-74
2022/05/11 00:29:52;;;;;;;333.02;134.90;;;;;;;14.97;54.93;99951.16;337751;29;858;-75
2022/05/11 00:30:03;;;;;;;335.80;137.53;;;;;;;15.00;54.69;99963.31;336954;29;881;-74
2022/05/11 00:30:14;;;;;;;336.20;137.18;;;;;;;14.95;54.74;99953.88;335117;29;1160;-74
2022/05/11 00:30:25;;;;;;;336.23;137.23;;;;;;;14.94;54.79;99960.06;336382;29;1201;-74
2022/05/11 00:30:35;;;;;;;334.45;135.35;;;;;;;14.95;54.85;99958.28;336896;29;1510;-74
2022/05/11 00:30:46;;;;;;;335.30;135.47;;;;;;;14.97;54.80;99953.78;337975;29;893;-74
2022/05/11 00:30:56;;;;;;;334.13;135.53;;;;;;;14.96;54.77;99950.31;333746;29;1337;-75
2022/05/11 00:31:07;;;;;;;333.88;136.50;;;;;;;14.96;55.03;99950.31;335402;29;1094;-74
2022/05/11 00:31:17;;;;;;;331.77;136.00;;;;;;;14.96;55.17;99952.94;336750;29;1309;-74
2022/05/11 00:31:27;;;;;;;329.92;134.27;;;;;;;14.98;55.04;99956.34;335654;29;936;-74
2022/05/11 00:31:38;;;;;;;328.90;133.83;;;;;;;14.96;54.93;99958.22;335352;29;1190;-74
2022/05/11 00:31:48;;;;;;;330.40;135.57;;;;;;;14.97;55.19;99957.28;337952;29;1433;-74
2022/05/11 00:31:58;;;;;;;332.87;137.83;;;;;;;14.96;55.01;99960.00;334096;29;1192;-74
2022/05/11 00:32:09;;;;;;;333.08;137.68;;;;;;;14.95;55.21;99953.88;334605;29;1480;-74
2022/05/11 00:32:19;;;;;;;330.40;135.03;;;;;;;14.93;55.10;99953.09;335423;29;1403;-74
2022/05/11 00:32:30;;;;;;;329.77;133.80;;;;;;;14.96;54.93;99962.63;338199;29;840;-74
2022/05/11 00:32:40;;;;;;;331.90;134.70;;;;;;;14.95;55.34;99956.50;336799;29;1600;-74
2022/05/11 00:32:56;;;;;;;334.37;136.30;;;;;;;14.91;55.05;99954.97;338143;29;1194;-75
2022/05/11 00:33:07;;;;;;;333.65;135.20;;;;;;;14.89;55.16;99956.81;336389;29;1343;-75
2022/05/11 00:33:18;;;;;;;332.10;134.40;;;;;;;14.87;55.33;99963.97;334133;29;1103;-75
2022/05/11 00:33:29;;;;;;;330.77;135.30;;;;;;;14.87;55.33;99953.41;336956;29;995;-74
2022/05/11 00:33:39;;;;;;;331.70;135.63;;;;;;;14.89;55.19;99961.25;337968;29;1225;-75
2022/05/11 00:33:51;;;;;;;333.65;135.50;;;;;;;14.87;55.23;99958.69;336645;29;1428;-73
2022/05/11 00:34:02;;;;;;;334.00;136.34;;;;;;;14.86;55.43;99957.00;332700;29;1537;-73
2022/05/11 00:34:12;;;;;;;335.87;137.17;;;;;;;14.85;55.38;99960.56;336550;29;1764;-74
2022/05/11 00:34:22;;;;;;;335.77;136.53;;;;;;;14.87;55.44;99957.84;337145;29;1292;-73
2022/05/11 00:34:33;;;;;;;333.55;134.02;;;;;;;14.83;55.21;99957.16;335516;29;1295;-74
2022/05/11 00:34:43;;;;;;;330.03;133.60;;;;;;;14.81;55.33;99956.38;332889;29;813;-73
2022/05/11 00:34:54;;;;;;;330.20;134.77;;;;;;;14.78;55.65;99956.53;335716;29;1301;-77
2022/05/11 00:35:05;;;;;;;330.70;135.97;;;;;;;14.79;55.81;99960.88;335518;29;4079;-74
2022/05/11 00:35:16;;;;;;;329.88;135.25;;;;;;;14.81;55.74;99958.16;335911;29;5581;-75
2022/05/11 00:35:27;;;;;;;335.13;136.63;;;;;;;14.79;55.83;99958.25;335560;29;1585;-74
2022/05/11 00:35:38;;;;;;;339.48;138.35;;;;;;;14.82;55.59;99955.44;339150;29;1295;-75
2022/05/11 00:35:49;;;;;;;338.65;139.35;;;;;;;14.81;55.88;99963.44;336162;29;5815;-74
2022/05/11 00:36:00;;;;;;;335.17;138.05;;;;;;;14.80;55.87;99952.03;333921;29;1419;-75
2022/05/11 00:36:11;;;;;;;335.48;137.10;;;;;;;14.81;55.79;99956.38;337966;29;1908;-75
2022/05/11 00:36:21;;;;;;;335.00;136.07;;;;;;;14.82;56.08;99960.72;337763;29;1549;-75
2022/05/11 00:36:31;;;;;;;333.43;135.80;;;;;;;14.81;55.59;99959.00;334286;29;811;-74
2022/05/11 00:36:42;;;;;;;332.77;135.35;;;;;;;14.81;55.60;99956.38;335514;29;977;-74
2022/05/11 00:36:53;;;;;;;331.80;134.27;;;;;;;14.83;55.57;99957.16;335787;29;1206;-75
2022/05/11 00:37:03;;;;;;;331.15;133.48;;;;;;;14.84;55.47;99953.59;336660;29;1362;-74
2022/05/11 00:37:14;;;;;;;333.70;134.30;;;;;;;14.86;55.69;99954.34;335156;29;1297;-74
2022/05/11 00:37:24;;;;;;;334.80;135.97;;;;;;;14.87;55.63;99960.47;336773;29;870;-74
2022/05/11 00:37:34;;;;;;;335.13;136.60;;;;;;;14.88;55.64;99954.28;339609;29;806;-74
2022/05/11 00:37:45;;;;;;;333.17;135.63;;;;;;;14.85;55.63;99959.69;339452;29;1331;-74
2022/05/11 00:37:55;;;;;;;333.70;135.93;;;;;;;14.85;55.79;99949.16;340626;28;827;-74
2022/05/11 00:38:06;;;;;;;333.75;136.43;;;;;;;14.83;55.68;99957.16;338059;29;795;-74
2022/05/11 00:38:17;;;;;;;332.40;136.57;;;;;;;14.77;55.89;99957.47;336835;29;1269;-74
2022/05/11 00:38:28;;;;;;;330.55;136.05;;;;;;;14.75;55.85;99954.06;339136;29;2015;-74
2022/05/11 00:38:40;;;;;;;332.13;136.43;;;;;;;14.76;56.10;99954.91;336875;29;845;-74
2022/05/11 00:38:50;;;;;;;334.05;137.98;;;;;;;14.73;56.25;99961.19;336635;29;2231;-74
2022/05/11 00:39:01;;;;;;;334.02;138.77;;;;;;;14.74;56.29;99956.78;332878;29;1528;-74
2022/05/11 00:39:11;;;;;;;334.50;137.47;;;;;;;14.72;56.47;99951.63;334184;29;1334;-74
2022/05/11 00:39:21;;;;;;;333.20;135.77;;;;;;;14.70;56.31;99950.84;336624;29;1337;-76
2022/05/11 00:39:35;;;;;;;330.37;133.03;;;;;;;14.75;56.40;99959.31;336826;29;1165;-74
2022/05/11 00:39:45;;;;;;;328.30;133.20;;;;;;;14.76;56.28;99960.19;335448;29;1272;-75
2022/05/11 00:39:57;;;;;;;329.55;133.48;;;;;;;14.74;56.46;99957.63;336718;29;916;-73
2022/05/11 00:40:08;;;;;;;330.42;133.27;;;;;;;14.74;56.40;99947.09;336913;29;995;-73
2022/05/11 00:40:18;;;;;;;327.73;131.10;;;;;;;14.73;56.47;99955.09;335497;29;925;-75
2022/05/11 00:40:29;;;;;;;329.43;131.17;;;;;;;14.73;56.69;99955.91;334082;29;1376;-75
2022/05/11 00:40:44;;;;;;;331.15;132.07;;;;;;;14.72;56.64;99954.25;337812;29;1383;-75
2022/05/11 00:40:58;;;;;;;335.58;135.27;;;;;;;14.74;56.83;99955.00;336554;29;2161;-75
2022/05/11 00:41:10;;;;;;;335.02;136.77;;;;;;;14.71;56.65;99947.28;335463;29;1331;-75
2022/05/11 00:41:20;;;;;;;332.65;137.05;;;;;;;14.70;56.84;99953.47;337796;29;1308;-75
2022/05/11 00:41:30;;;;;;;333.63;136.93;;;;;;;14.72;57.11;99958.66;336935;29;1005;-75
2022/05/11 00:41:41;;;;;;;332.48;137.68;;;;;;;14.70;57.29;99953.47;335092;29;1595;-75
2022/05/11 00:41:53;;;;;;;332.23;137.63;;;;;;;14.69;56.91;99951.78;335377;29;897;-76
2022/05/11 00:42:04;;;;;;;328.67;135.30;;;;;;;14.72;57.14;99950.75;337994;29;1638;-74
2022/05/11 00:42:14;;;;;;;329.08;135.77;;;;;;;14.72;57.07;99954.25;339138;29;911;-74
2022/05/11 00:42:25;;;;;;;328.38;135.55;;;;;;;14.71;57.39;99952.53;339238;29;1434;-75
2022/05/11 00:42:35;;;;;;;326.97;134.90;;;;;;;14.71;56.96;99951.69;334473;29;1529;-75
2022/05/11 00:42:45;;;;;;;325.60;133.65;;;;;;;14.71;57.08;99947.28;335593;29;1415;-76
2022/05/11 00:42:56;;;;;;;328.13;134.30;;;;;;;14.74;57.10;99949.72;335017;29;1646;-74
2022/05/11 00:43:07;;;;;;;328.97;134.03;;;;;;;14.75;57.27;99953.22;336808;29;937;-73
2022/05/11 00:43:33;;;;;;;328.58;131.75;;;;;;;14.74;57.63;99957.63;337887;29;1196;-74
2022/05/11 00:43:59;;;;;;;328.67;134.43;;;;;;;14.77;56.95;99949.56;334417;29;2132;-74
2022/05/11 00:44:12;;;;;;;329.92;133.70;;;;;;;14.75;57.06;99956.69;336661;29;1218;-75
2022/05/11 00:44:22;;;;;;;331.60;135.57;;;;;;;14.73;57.07;99950.66;331548;29;5399;-75
2022/05/11 00:44:32;;;;;;;329.67;136.80;;;;;;;14.72;57.41;99953.41;334661;29;5848;-75
2022/05/11 00:44:43;;;;;;;333.90;138.55;;;;;;;14.68;57.34;99952.72;335095;29;1795;-75
2022/05/11 00:44:54;;;;;;;332.90;137.97;;;;;;;14.69;57.10;99954.41;335182;29;2798;-75
2022/05/11 00:45:05;;;;;;;334.35;137.40;;;;;;;14.70;57.33;99950.84;333552;29;837;-74
2022/05/11 00:45:16;;;;;;;331.98;136.23;;;;;;;14.68;57.21;99950.06;336737;29;1345;-74
2022/05/11 00:45:28;;;;;;;329.70;135.18;;;;;;;14.66;57.39;99951.94;338585;29;1601;-74
2022/05/11 00:45:41;;;;;;;328.88;136.48;;;;;;;14.66;57.38;99957.19;336618;29;1404;-74
2022/05/11 00:45:52;;;;;;;331.70;138.82;;;;;;;14.67;57.68;99958.91;334329;29;1920;-75
2022/05/11 00:46:08;;;;;;;332.83;139.27;;;;;;;14.70;57.37;99966.66;334956;29;1439;-74
2022/05/11 00:46:27;;;;;;;329.98;135.98;;;;;;;14.65;57.48;99960.78;336848;29;1775;-74
2022/05/11 00:46:46;;;;;;;328.92;134.13;;;;;;;14.63;57.65;99960.84;338473;29;1273;-76
2022/05/11 00:46:58;;;;;;;330.92;136.48;;;;;;;14.66;57.33;99959.00;337580;29;1733;-74
2022/05/11 00:47:17;;;;;;;331.33;137.90;;;;;;;14.62;57.57;99959.16;336689;29;1012;-75
2022/05/11 00:47:31;;;;;;;332.48;137.77;;;;;;;14.63;57.28;99954.72;337734;29;1698;-75
2022/05/11 00:47:44;;;;;;;331.95;136.02;;;;;;;14.65;57.32;99960.78;338370;29;1070;-74
2022/05/11 00:49:48;;;;;;;324.48;126.40;;;;;;;14.70;57.40;99966.66;339165;29;1780;-75
2022/05/11 00:50:00;;;;;;;324.50;124.57;;;;;;;14.70;57.14;99964.03;333188;29;1333;-75
2022/05/11 00:50:40;;;;;;;326.02;127.72;;;;;;;14.69;57.31;99964.94;337786;29;1776;-76
2022/05/11 00:50:50;;;;;;;327.63;125.38;;;;;;;14.65;56.98;99963.41;336750;29;1606;-75
2022/05/11 00:51:01;;;;;;;330.30;127.70;;;;;;;14.64;56.93;99961.69;336583;29;1249;-75
2022/05/11 00:51:11;;;;;;;329.77;129.87;;;;;;;14.60;57.00;99961.00;334396;29;1261;-75
2022/05/11 00:51:23;;;;;;;327.55;129.25;;;;;;;14.63;56.88;99960.84;338788;29;2088;-75
2022/05/11 00:51:40;;;;;;;326.65;126.85;;;;;;;14.60;56.97;99961.00;338324;29;1903;-74
2022/05/11 00:51:52;;;;;;;326.58;126.63;;;;;;;14.62;56.92;99958.28;335649;29;1522;-74
2022/05/11 00:52:09;;;;;;;326.45;128.48;;;;;;;14.55;57.07;99959.53;337093;29;991;-74
2022/05/11 00:52:29;;;;;;;329.33;135.65;;;;;;;14.53;57.06;99962.25;333068;29;1699;-75
2022/05/11 00:52:50;;;;;;;333.70;144.10;;;;;;;14.53;56.69;99964.03;337057;29;1506;-74
2022/05/11 00:53:09;;;;;;;331.17;136.25;;;;;;;14.52;56.80;99964.97;338646;29;2185;-75
2022/05/11 00:53:20;;;;;;;330.05;129.43;;;;;;;14.52;57.22;99957.91;339395;29;1900;-75
2022/05/11 00:53:30;;;;;;;333.73;132.30;;;;;;;14.53;57.01;99961.41;336962;29;4822;-75
2022/05/11 00:53:43;;;;;;;330.75;133.20;;;;;;;14.50;57.12;99954.50;337295;29;3557;-75
2022/05/11 00:53:53;;;;;;;332.88;135.48;;;;;;;14.50;56.77;99961.56;335574;29;1767;-75
2022/05/11 00:54:04;;;;;;;332.95;133.52;;;;;;;14.48;57.02;99960.78;335245;29;5448;-75
2022/05/11 00:54:15;;;;;;;332.63;131.70;;;;;;;14.49;56.85;99965.13;338319;29;848;-75
2022/05/11 00:54:26;;;;;;;327.27;129.00;;;;;;;14.49;57.04;99957.22;338292;29;1619;-75
2022/05/11 00:54:49;;;;;;;325.45;129.98;;;;;;;14.44;56.96;99949.53;337093;29;1288;-75